Search for airport 
image banner adimage banner adimage banner ad
image banner ad

PN50 - Skyline Airstrip

Located in Shoemakersville, United States

ICAO - PN50, IATA -

Data provided by Airmate  

General information

Coordinates: N40°30'25" W75°56'30"
Elevation is 580 feet MSL.
Magnetic variation is -12° East
View others Airports in Pennsylvania

Operational data

Special qualification required
Current time UTC:
Current local time:
METAR: KRDG 150554Z AUTO 17003KT 3SM BR FEW060 17/17 A2979 RMK AO2 SLP088 60022 T01720167 10200 20167 51004
TAF: KRDG 150523Z 1506/1606 VRB03KT P6SM BKN080 TEMPO 1508/1512 2SM BR OVC015 FM151400 31008G16KT P6SM BKN050 FM152300 33004KT P6SM SCT050
View NOTAMs / SUP AIP / TFR affecting this airport [VIEW]
Communications frequencies: [VIEW]

Runways:

RWY identifierQFULength (ft)Width (ft)SurfaceLDA (ft)
0973°2150100GRASS
27253°2150100GRASS

Airport contact information

Address: Shoemakersville United States

Satellite view of PN50